createdAt,value
2018-02-10T00:00:42.836Z,988.97
2018-02-10T00:01:42.829Z,988.98
2018-02-10T00:02:42.818Z,988.97
2018-02-10T00:03:42.807Z,988.99
2018-02-10T00:04:42.800Z,988.98
2018-02-10T00:05:42.788Z,988.99
2018-02-10T00:06:42.779Z,988.99
2018-02-10T00:07:42.772Z,989.01
2018-02-10T00:08:42.762Z,989.02
2018-02-10T00:09:42.750Z,989.02
2018-02-10T00:10:42.755Z,989.04
2018-02-10T00:11:42.757Z,989.01
2018-02-10T00:12:42.722Z,989.06
2018-02-10T00:13:42.712Z,989.07
2018-02-10T00:14:42.702Z,989.05
2018-02-10T00:15:42.693Z,989.05
2018-02-10T00:16:42.681Z,989.07
2018-02-10T00:17:42.673Z,989.06
2018-02-10T00:18:42.664Z,989.07
2018-02-10T00:19:42.654Z,989.08
2018-02-10T00:20:42.651Z,989.05
2018-02-10T00:21:42.636Z,989.08
2018-02-10T00:22:42.628Z,989.09
2018-02-10T00:23:42.618Z,989.14
2018-02-10T00:24:42.608Z,989.13
2018-02-10T00:25:42.601Z,989.14
2018-02-10T00:26:42.594Z,989.15
2018-02-10T00:27:42.580Z,989.17
2018-02-10T00:28:42.569Z,989.18
2018-02-10T00:29:42.562Z,989.21
2018-02-10T00:30:42.551Z,989.17
2018-02-10T00:31:42.551Z,989.22
2018-02-10T00:32:42.537Z,989.16
2018-02-10T00:33:42.522Z,989.24
2018-02-10T00:34:45.966Z,989.22
2018-02-10T00:35:42.504Z,989.24
2018-02-10T00:36:42.494Z,989.23
2018-02-10T00:37:42.485Z,989.24
2018-02-10T00:38:42.478Z,989.2
2018-02-10T00:39:42.465Z,989.23
2018-02-10T00:40:42.457Z,989.23
2018-02-10T00:41:42.450Z,989.21
2018-02-10T00:42:42.436Z,989.25
2018-02-10T00:43:42.430Z,989.26
2018-02-10T00:44:42.417Z,989.26
2018-02-10T00:45:42.410Z,989.24
2018-02-10T00:46:42.398Z,989.26
2018-02-10T00:47:42.391Z,989.25
2018-02-10T00:48:42.379Z,989.25
2018-02-10T00:49:42.369Z,989.22
2018-02-10T00:50:42.361Z,989.22
2018-02-10T00:51:42.352Z,989.19
2018-02-10T00:52:42.342Z,989.23
2018-02-10T00:53:42.338Z,989.22
2018-02-10T00:54:42.322Z,989.22
2018-02-10T00:55:42.316Z,989.2
2018-02-10T00:56:42.308Z,989.19
2018-02-10T00:57:42.304Z,989.21
2018-02-10T00:58:42.283Z,989.21
2018-02-10T00:59:42.285Z,989.22
2018-02-10T01:00:42.265Z,989.26
2018-02-10T01:01:42.254Z,989.2
2018-02-10T01:02:42.253Z,989.24
2018-02-10T01:03:42.245Z,989.25
2018-02-10T01:04:42.242Z,989.27
2018-02-10T01:05:42.236Z,989.29
2018-02-10T01:06:42.218Z,989.29
2018-02-10T01:07:42.229Z,989.28
2018-02-10T01:08:42.196Z,989.29
2018-02-10T01:09:42.180Z,989.33
2018-02-10T01:10:42.173Z,989.32
2018-02-10T01:11:42.161Z,989.28
2018-02-10T01:12:42.152Z,989.33
2018-02-10T01:13:42.142Z,989.36
2018-02-10T01:14:42.137Z,989.36
2018-02-10T01:15:42.124Z,989.39
2018-02-10T01:16:42.115Z,989.36
2018-02-10T01:17:42.105Z,989.38
2018-02-10T01:18:42.095Z,989.41
2018-02-10T01:19:42.085Z,989.39
2018-02-10T01:20:42.077Z,989.39
2018-02-10T01:21:42.073Z,989.42
2018-02-10T01:22:42.061Z,989.38
2018-02-10T01:23:42.048Z,989.42
2018-02-10T01:24:42.038Z,989.4
2018-02-10T01:25:42.029Z,989.4
2018-02-10T01:26:42.020Z,989.44
2018-02-10T01:27:42.009Z,989.37
2018-02-10T01:28:42.000Z,989.39
2018-02-10T01:29:41.991Z,989.4
2018-02-10T01:30:41.999Z,989.42
2018-02-10T01:31:41.973Z,989.39
2018-02-10T01:32:41.964Z,989.4
2018-02-10T01:33:41.953Z,989.41
2018-02-10T01:34:41.948Z,989.43
2018-02-10T01:35:41.935Z,989.44
2018-02-10T01:36:41.926Z,989.46
2018-02-10T01:37:41.915Z,989.44
2018-02-10T01:38:41.906Z,989.4
2018-02-10T01:39:41.897Z,989.45
2018-02-10T01:40:41.892Z,989.42
2018-02-10T01:41:41.878Z,989.36
2018-02-10T01:42:41.870Z,989.42
2018-02-10T01:43:41.864Z,989.41
2018-02-10T01:44:41.850Z,989.43
2018-02-10T01:45:41.845Z,989.47
2018-02-10T01:46:41.833Z,989.41
2018-02-10T01:47:41.822Z,989.41
2018-02-10T01:48:41.812Z,989.45
2018-02-10T01:49:41.810Z,989.44
2018-02-10T01:50:41.794Z,989.45
2018-02-10T01:51:41.787Z,989.41
2018-02-10T01:52:41.774Z,989.44
2018-02-10T01:53:41.766Z,989.42
2018-02-10T01:54:41.755Z,989.44
2018-02-10T01:55:41.745Z,989.44
2018-02-10T01:56:41.738Z,989.43
2018-02-10T01:57:41.728Z,989.44
2018-02-10T01:58:41.719Z,989.46
2018-02-10T01:59:41.707Z,989.42
2018-02-10T02:00:41.708Z,989.4
2018-02-10T02:01:41.688Z,989.39
2018-02-10T02:02:41.677Z,989.38
2018-02-10T02:03:41.694Z,989.42
2018-02-10T02:04:41.659Z,989.41
2018-02-10T02:05:41.648Z,989.39
2018-02-10T02:06:41.641Z,989.39
2018-02-10T02:07:41.635Z,989.4
2018-02-10T02:08:41.620Z,989.38
2018-02-10T02:09:41.612Z,989.4
2018-02-10T02:10:42.402Z,989.39
2018-02-10T02:11:41.591Z,989.38
2018-02-10T02:12:41.584Z,989.37
2018-02-10T02:13:41.573Z,989.37
2018-02-10T02:14:41.571Z,989.39
2018-02-10T02:15:41.557Z,989.37
2018-02-10T02:16:41.546Z,989.39
2018-02-10T02:17:41.536Z,989.37
2018-02-10T02:18:41.534Z,989.43
2018-02-10T02:19:41.518Z,989.4
2018-02-10T02:20:41.511Z,989.42
2018-02-10T02:21:41.498Z,989.4
2018-02-10T02:22:41.488Z,989.39
2018-02-10T02:23:41.481Z,989.37
2018-02-10T02:24:41.477Z,989.41
2018-02-10T02:25:41.462Z,989.39
2018-02-10T02:26:41.451Z,989.44
2018-02-10T02:27:41.442Z,989.44
2018-02-10T02:28:41.433Z,989.48
2018-02-10T02:29:41.428Z,989.49
2018-02-10T02:30:41.414Z,989.5
2018-02-10T02:31:41.404Z,989.49
2018-02-10T02:32:41.394Z,989.47
2018-02-10T02:33:41.385Z,989.45
2018-02-10T02:34:41.382Z,989.47
2018-02-10T02:35:41.384Z,989.47
2018-02-10T02:36:41.359Z,989.49
2018-02-10T02:37:41.355Z,989.49
2018-02-10T02:38:41.340Z,989.54
2018-02-10T02:39:41.330Z,989.53
2018-02-10T02:40:41.356Z,989.55
2018-02-10T02:41:41.313Z,989.56
2018-02-10T02:42:41.301Z,989.54
2018-02-10T02:43:41.297Z,989.56
2018-02-10T02:44:41.283Z,989.6
2018-02-10T02:45:41.291Z,989.59
2018-02-10T02:46:41.272Z,989.6
2018-02-10T02:47:41.260Z,989.6
2018-02-10T02:48:41.255Z,989.62
2018-02-10T02:49:41.237Z,989.62
2018-02-10T02:50:41.227Z,989.57
2018-02-10T02:51:41.218Z,989.55
2018-02-10T02:52:41.208Z,989.56
2018-02-10T02:53:41.198Z,989.59
2018-02-10T02:54:41.190Z,989.57
2018-02-10T02:55:41.180Z,989.59
2018-02-10T02:56:41.169Z,989.55
2018-02-10T02:57:41.160Z,989.55
2018-02-10T02:58:41.152Z,989.5
2018-02-10T02:59:41.142Z,989.54
2018-02-10T03:00:41.134Z,989.57
2018-02-10T03:01:41.123Z,989.54
2018-02-10T03:02:41.113Z,989.57
2018-02-10T03:03:41.105Z,989.6
2018-02-10T03:04:41.096Z,989.59
2018-02-10T03:05:41.088Z,989.59
2018-02-10T03:06:41.076Z,989.57
2018-02-10T03:07:41.067Z,989.58
2018-02-10T03:08:41.056Z,989.63
2018-02-10T03:09:41.050Z,989.58
2018-02-10T03:10:41.039Z,989.62
2018-02-10T03:11:41.032Z,989.65
2018-02-10T03:12:41.025Z,989.6
2018-02-10T03:13:41.012Z,989.64
2018-02-10T03:14:41.005Z,989.59
2018-02-10T03:15:40.992Z,989.61
2018-02-10T03:16:40.989Z,989.62
2018-02-10T03:17:40.974Z,989.62
2018-02-10T03:18:40.979Z,989.6
2018-02-10T03:19:40.954Z,989.59
2018-02-10T03:20:40.945Z,989.65
2018-02-10T03:21:40.937Z,989.65
2018-02-10T03:22:40.928Z,989.64
2018-02-10T03:23:40.916Z,989.62
2018-02-10T03:24:40.908Z,989.57
2018-02-10T03:25:40.899Z,989.6
2018-02-10T03:26:40.892Z,989.53
2018-02-10T03:27:40.879Z,989.5
2018-02-10T03:28:40.871Z,989.55
2018-02-10T03:29:40.867Z,989.57
2018-02-10T03:30:40.854Z,989.6
2018-02-10T03:31:40.846Z,989.62
2018-02-10T03:32:40.833Z,989.63
2018-02-10T03:33:40.824Z,989.63
2018-02-10T03:34:40.817Z,989.71
2018-02-10T03:35:40.805Z,989.66
2018-02-10T03:36:40.796Z,989.73
2018-02-10T03:37:40.785Z,989.75
2018-02-10T03:38:40.777Z,989.74
2018-02-10T03:39:40.768Z,989.78
2018-02-10T03:40:40.759Z,989.79
2018-02-10T03:41:40.751Z,989.82
2018-02-10T03:42:40.739Z,989.81
2018-02-10T03:43:40.733Z,989.79
2018-02-10T03:44:40.721Z,989.8
2018-02-10T03:45:40.720Z,989.77
2018-02-10T03:46:41.505Z,989.77
2018-02-10T03:47:40.693Z,989.82
2018-02-10T03:48:40.684Z,989.76
2018-02-10T03:49:40.674Z,989.75
2018-02-10T03:50:40.675Z,989.77
2018-02-10T03:51:40.664Z,989.78
2018-02-10T03:52:40.647Z,989.74
2018-02-10T03:53:40.641Z,989.73
2018-02-10T03:54:40.631Z,989.73
2018-02-10T03:55:40.618Z,989.74
2018-02-10T03:56:40.611Z,989.72
2018-02-10T03:57:40.601Z,989.72
2018-02-10T03:58:40.593Z,989.71
2018-02-10T03:59:40.580Z,989.72
2018-02-10T04:00:40.570Z,989.71
2018-02-10T04:01:40.563Z,989.75
2018-02-10T04:02:40.554Z,989.74
2018-02-10T04:03:40.543Z,989.73
2018-02-10T04:04:40.532Z,989.76
2018-02-10T04:05:40.584Z,989.75
2018-02-10T04:06:40.523Z,989.81
2018-02-10T04:07:40.508Z,989.8
2018-02-10T04:08:40.496Z,989.79
2018-02-10T04:09:40.487Z,989.81
2018-02-10T04:10:40.476Z,989.8
2018-02-10T04:11:40.468Z,989.82
2018-02-10T04:12:40.456Z,989.77
2018-02-10T04:13:40.449Z,989.81
2018-02-10T04:14:40.438Z,989.85
2018-02-10T04:15:40.431Z,989.83
2018-02-10T04:16:40.431Z,989.83
2018-02-10T04:17:40.411Z,989.82
2018-02-10T04:18:40.407Z,989.79
2018-02-10T04:19:40.392Z,989.83
2018-02-10T04:20:40.385Z,989.8
2018-02-10T04:21:40.374Z,989.81
2018-02-10T04:22:40.365Z,989.83
2018-02-10T04:23:40.361Z,989.84
2018-02-10T04:24:40.351Z,989.85
2018-02-10T04:25:40.336Z,989.87
2018-02-10T04:26:40.328Z,989.85
2018-02-10T04:27:40.321Z,989.83
2018-02-10T04:28:40.308Z,989.86
2018-02-10T04:29:40.299Z,989.87
2018-02-10T04:30:40.348Z,989.84
2018-02-10T04:31:40.286Z,989.88
2018-02-10T04:32:40.270Z,989.87
2018-02-10T04:33:40.266Z,989.86
2018-02-10T04:34:40.253Z,989.87
2018-02-10T04:35:40.244Z,989.89
2018-02-10T04:36:40.232Z,989.85
2018-02-10T04:37:40.231Z,989.86
2018-02-10T04:38:40.215Z,989.89
2018-02-10T04:39:40.204Z,989.9
2018-02-10T04:40:40.196Z,989.89
2018-02-10T04:41:40.187Z,989.91
2018-02-10T04:42:40.178Z,989.87
2018-02-10T04:43:40.166Z,989.93
2018-02-10T04:44:40.158Z,989.94
2018-02-10T04:45:40.149Z,989.91
2018-02-10T04:46:40.141Z,989.92
2018-02-10T04:47:40.130Z,989.99
2018-02-10T04:48:40.121Z,989.94
2018-02-10T04:49:40.111Z,989.98
2018-02-10T04:50:40.101Z,990.01
2018-02-10T04:51:40.104Z,990.01
2018-02-10T04:52:40.083Z,989.99
2018-02-10T04:53:40.079Z,990.03
2018-02-10T04:54:40.065Z,990.06
2018-02-10T04:55:40.054Z,990.02
2018-02-10T04:56:40.045Z,990.05
2018-02-10T04:57:40.041Z,990.07
2018-02-10T04:58:40.042Z,990.03
2018-02-10T04:59:40.017Z,990.03
2018-02-10T05:00:40.008Z,990.07
2018-02-10T05:01:39.999Z,990.05
2018-02-10T05:02:39.990Z,990.05
2018-02-10T05:03:39.984Z,990.06
2018-02-10T05:04:39.982Z,990.06
2018-02-10T05:05:39.961Z,990.09
2018-02-10T05:06:39.951Z,990.1
2018-02-10T05:07:39.942Z,990.09
2018-02-10T05:08:39.934Z,990.13
2018-02-10T05:09:39.923Z,990.12
2018-02-10T05:10:39.914Z,990.11
2018-02-10T05:11:39.905Z,990.14
2018-02-10T05:12:39.894Z,990.1
2018-02-10T05:13:39.884Z,990.14
2018-02-10T05:14:39.878Z,990.15
2018-02-10T05:15:39.866Z,990.14
2018-02-10T05:16:39.856Z,990.12
2018-02-10T05:17:39.848Z,990.11
2018-02-10T05:18:39.837Z,990.16
2018-02-10T05:19:39.830Z,990.18
2018-02-10T05:20:39.819Z,990.14
2018-02-10T05:21:39.810Z,990.2
2018-02-10T05:22:39.831Z,990.17
2018-02-10T05:23:39.791Z,990.18
2018-02-10T05:24:39.782Z,990.18
2018-02-10T05:25:39.778Z,990.19
2018-02-10T05:26:39.766Z,990.2
2018-02-10T05:27:39.758Z,990.22
2018-02-10T05:28:39.745Z,990.23
2018-02-10T05:29:39.736Z,990.23
2018-02-10T05:30:39.726Z,990.17
2018-02-10T05:31:39.716Z,990.22
2018-02-10T05:32:39.710Z,990.23
2018-02-10T05:33:39.711Z,990.25
2018-02-10T05:34:39.689Z,990.23
2018-02-10T05:35:39.754Z,990.2
2018-02-10T05:36:39.669Z,990.25
2018-02-10T05:37:39.660Z,990.23
2018-02-10T05:38:39.651Z,990.22
2018-02-10T05:39:39.642Z,990.18
2018-02-10T05:40:39.694Z,990.19
2018-02-10T05:41:39.625Z,990.16
2018-02-10T05:42:39.612Z,990.16
2018-02-10T05:43:39.604Z,990.17
2018-02-10T05:44:39.595Z,990.16
2018-02-10T05:45:39.584Z,990.14
2018-02-10T05:46:39.575Z,990.13
2018-02-10T05:47:39.566Z,990.14
2018-02-10T05:48:39.555Z,990.15
2018-02-10T05:49:39.566Z,990.18
2018-02-10T05:50:39.537Z,990.19
2018-02-10T05:51:39.528Z,990.18
2018-02-10T05:52:39.519Z,990.18
2018-02-10T05:53:39.509Z,990.17
2018-02-10T05:54:39.501Z,990.11
2018-02-10T05:55:39.491Z,990.14
2018-02-10T05:56:39.480Z,990.17
2018-02-10T05:57:39.470Z,990.16
2018-02-10T05:58:39.461Z,990.2
2018-02-10T05:59:39.452Z,990.18
2018-02-10T06:00:39.448Z,990.15
2018-02-10T06:01:39.442Z,990.19
2018-02-10T06:02:39.426Z,990.17
2018-02-10T06:03:39.417Z,990.18
2018-02-10T06:04:39.404Z,990.21
2018-02-10T06:05:39.394Z,990.21
2018-02-10T06:06:39.385Z,990.2
2018-02-10T06:07:39.382Z,990.22
2018-02-10T06:08:39.365Z,990.21
2018-02-10T06:09:39.359Z,990.21
2018-02-10T06:10:39.349Z,990.24
2018-02-10T06:11:39.337Z,990.26
2018-02-10T06:12:39.327Z,990.3
2018-02-10T06:13:39.320Z,990.3
2018-02-10T06:14:39.308Z,990.33
2018-02-10T06:15:39.303Z,990.27
2018-02-10T06:16:39.290Z,990.3
2018-02-10T06:17:39.280Z,990.36
2018-02-10T06:18:39.269Z,990.33
2018-02-10T06:19:39.260Z,990.3
2018-02-10T06:20:39.286Z,990.34
2018-02-10T06:21:39.247Z,990.34
2018-02-10T06:22:39.236Z,990.34
2018-02-10T06:23:39.221Z,990.39
2018-02-10T06:24:39.216Z,990.42
2018-02-10T06:25:39.204Z,990.37
2018-02-10T06:26:39.193Z,990.46
2018-02-10T06:27:39.187Z,990.48
2018-02-10T06:28:39.182Z,990.44
2018-02-10T06:29:39.169Z,990.45
2018-02-10T06:30:39.161Z,990.52
2018-02-10T06:31:39.148Z,990.51
2018-02-10T06:32:39.140Z,990.49
2018-02-10T06:33:39.127Z,990.53
2018-02-10T06:34:39.117Z,990.49
2018-02-10T06:35:39.110Z,990.51
2018-02-10T06:36:39.100Z,990.51
2018-02-10T06:37:39.089Z,990.51
2018-02-10T06:38:39.079Z,990.54
2018-02-10T06:39:39.071Z,990.58
2018-02-10T06:40:39.064Z,990.55
2018-02-10T06:41:39.054Z,990.56
2018-02-10T06:42:39.042Z,990.61
2018-02-10T06:43:39.031Z,990.6
2018-02-10T06:44:39.022Z,990.62
2018-02-10T06:45:39.013Z,990.7
2018-02-10T06:46:39.004Z,990.71
2018-02-10T06:47:38.995Z,990.69
2018-02-10T06:48:38.987Z,990.71
2018-02-10T06:49:38.977Z,990.74
2018-02-10T06:50:38.969Z,990.78
2018-02-10T06:51:38.962Z,990.78
2018-02-10T06:52:38.948Z,990.78
2018-02-10T06:53:38.945Z,990.82
2018-02-10T06:54:38.929Z,990.84
2018-02-10T06:55:38.919Z,990.83
2018-02-10T06:56:38.909Z,990.84
2018-02-10T06:57:38.905Z,990.86
2018-02-10T06:58:38.903Z,990.81
2018-02-10T06:59:38.880Z,990.85
2018-02-10T07:00:38.888Z,990.9
2018-02-10T07:01:38.955Z,990.91
2018-02-10T07:02:38.861Z,990.95
2018-02-10T07:03:38.842Z,990.95
2018-02-10T07:04:38.833Z,990.96
2018-02-10T07:05:38.830Z,990.97
2018-02-10T07:06:38.814Z,990.95
2018-02-10T07:07:38.805Z,990.96
2018-02-10T07:08:39.045Z,990.93
2018-02-10T07:09:38.785Z,990.98
2018-02-10T07:10:38.778Z,990.95
2018-02-10T07:11:38.772Z,991.01
2018-02-10T07:12:38.761Z,991.02
2018-02-10T07:13:38.748Z,990.95
2018-02-10T07:14:38.738Z,990.98
2018-02-10T07:15:38.729Z,990.99
2018-02-10T07:16:38.723Z,990.99
2018-02-10T07:17:38.709Z,991.01
2018-02-10T07:18:38.700Z,991
2018-02-10T07:19:38.690Z,991.08
2018-02-10T07:20:38.682Z,991.09
2018-02-10T07:21:38.673Z,991.11
2018-02-10T07:22:38.665Z,991.17
2018-02-10T07:23:40.255Z,991.15
2018-02-10T07:24:38.645Z,991.22
2018-02-10T07:25:38.634Z,991.23
2018-02-10T07:26:38.626Z,991.17
2018-02-10T07:27:38.618Z,991.21
2018-02-10T07:28:38.617Z,991.25
2018-02-10T07:29:38.598Z,991.23
2018-02-10T07:30:38.589Z,991.24
2018-02-10T07:31:38.581Z,991.25
2018-02-10T07:32:38.571Z,991.23
2018-02-10T07:33:38.562Z,991.25
2018-02-10T07:34:38.564Z,991.27
2018-02-10T07:35:38.544Z,991.25
2018-02-10T07:36:38.534Z,991.24
2018-02-10T07:37:38.525Z,991.22
2018-02-10T07:38:38.519Z,991.26
2018-02-10T07:39:38.506Z,991.23
2018-02-10T07:40:38.504Z,991.27
2018-02-10T07:41:38.499Z,991.29
2018-02-10T07:42:38.482Z,991.27
2018-02-10T07:43:38.470Z,991.25
2018-02-10T07:44:38.462Z,991.29
2018-02-10T07:45:38.456Z,991.29
2018-02-10T07:46:38.450Z,991.33
2018-02-10T07:47:38.445Z,991.31
2018-02-10T07:48:38.427Z,991.3
2018-02-10T07:49:38.416Z,991.29
2018-02-10T07:50:38.412Z,991.28
2018-02-10T07:51:38.398Z,991.28
2018-02-10T07:52:38.393Z,991.29
2018-02-10T07:53:38.380Z,991.32
2018-02-10T07:54:38.371Z,991.31
2018-02-10T07:55:38.362Z,991.34
2018-02-10T07:56:38.354Z,991.33
2018-02-10T07:57:38.358Z,991.34
2018-02-10T07:58:38.335Z,991.39
2018-02-10T07:59:38.326Z,991.36
2018-02-10T08:00:38.322Z,991.35
2018-02-10T08:01:38.310Z,991.38
2018-02-10T08:02:38.300Z,991.34
2018-02-10T08:03:38.290Z,991.39
2018-02-10T08:04:38.284Z,991.4
2018-02-10T08:05:38.394Z,991.36
2018-02-10T08:06:38.270Z,991.39
2018-02-10T08:07:38.259Z,991.42
2018-02-10T08:08:38.247Z,991.41
2018-02-10T08:09:38.238Z,991.44
2018-02-10T08:10:38.229Z,991.44
2018-02-10T08:11:38.220Z,991.48
2018-02-10T08:12:38.218Z,991.53
2018-02-10T08:13:38.201Z,991.53
2018-02-10T08:14:38.195Z,991.54
2018-02-10T08:15:38.184Z,991.59
2018-02-10T08:16:38.176Z,991.57
2018-02-10T08:17:38.168Z,991.57
2018-02-10T08:18:38.159Z,991.59
2018-02-10T08:19:38.148Z,991.61
2018-02-10T08:20:38.136Z,991.6
2018-02-10T08:21:38.128Z,991.61
2018-02-10T08:22:38.120Z,991.63
2018-02-10T08:23:38.116Z,991.59
2018-02-10T08:24:38.101Z,991.62
2018-02-10T08:25:38.091Z,991.61
2018-02-10T08:26:38.082Z,991.62
2018-02-10T08:27:38.070Z,991.67
2018-02-10T08:28:38.063Z,991.69
2018-02-10T08:29:38.054Z,991.69
2018-02-10T08:30:38.044Z,991.66
2018-02-10T08:31:38.038Z,991.63
2018-02-10T08:32:38.029Z,991.69
2018-02-10T08:33:38.015Z,991.68
2018-02-10T08:34:38.008Z,991.67
2018-02-10T08:35:38.023Z,991.69
2018-02-10T08:36:37.989Z,991.69
2018-02-10T08:37:37.978Z,991.71
2018-02-10T08:38:37.970Z,991.71
2018-02-10T08:39:42.914Z,991.72
2018-02-10T08:40:37.951Z,991.71
2018-02-10T08:41:37.940Z,991.74
2018-02-10T08:42:37.931Z,991.73
2018-02-10T08:43:37.924Z,991.75
2018-02-10T08:44:37.913Z,991.77
2018-02-10T08:45:37.976Z,991.77
2018-02-10T08:46:37.896Z,991.78
2018-02-10T08:47:37.891Z,991.79
2018-02-10T08:48:37.877Z,991.79
2018-02-10T08:49:37.868Z,991.83
2018-02-10T08:50:37.859Z,991.8
2018-02-10T08:51:37.853Z,991.8
2018-02-10T08:52:37.841Z,991.8
2018-02-10T08:53:37.832Z,991.83
2018-02-10T08:54:37.822Z,991.83
2018-02-10T08:55:37.864Z,991.82
2018-02-10T08:56:37.805Z,991.8
2018-02-10T08:57:37.796Z,991.82
2018-02-10T08:58:37.787Z,991.83
2018-02-10T08:59:37.778Z,991.84
2018-02-10T09:00:37.768Z,991.9
2018-02-10T09:01:37.761Z,991.91
2018-02-10T09:02:37.753Z,991.93
2018-02-10T09:03:37.744Z,991.9
2018-02-10T09:04:37.735Z,991.88
2018-02-10T09:05:37.732Z,991.9
2018-02-10T09:06:37.717Z,991.9
2018-02-10T09:07:37.711Z,991.87
2018-02-10T09:08:37.700Z,991.88
2018-02-10T09:09:37.691Z,991.89
2018-02-10T09:10:37.683Z,991.88
2018-02-10T09:11:37.679Z,991.84
2018-02-10T09:12:37.670Z,991.84
2018-02-10T09:13:37.660Z,991.92
2018-02-10T09:14:37.648Z,991.9
2018-02-10T09:15:37.641Z,991.9
2018-02-10T09:16:37.637Z,991.87
2018-02-10T09:17:37.623Z,991.9
2018-02-10T09:18:37.622Z,991.92
2018-02-10T09:19:37.607Z,991.9
2018-02-10T09:20:37.604Z,991.9
2018-02-10T09:21:37.597Z,991.87
2018-02-10T09:22:37.585Z,991.87
2018-02-10T09:23:37.574Z,991.83
2018-02-10T09:24:37.566Z,991.88
2018-02-10T09:25:37.616Z,991.85
2018-02-10T09:26:37.552Z,991.86
2018-02-10T09:27:37.540Z,991.89
2018-02-10T09:28:37.531Z,991.87
2018-02-10T09:29:37.533Z,991.84
2018-02-10T09:30:37.516Z,991.84
2018-02-10T09:31:37.509Z,991.84
2018-02-10T09:32:37.506Z,991.86
2018-02-10T09:33:37.491Z,991.85
2018-02-10T09:34:37.483Z,991.87
2018-02-10T09:35:37.473Z,991.83
2018-02-10T09:36:37.466Z,991.85
2018-02-10T09:37:37.458Z,991.86
2018-02-10T09:38:37.449Z,991.83
2018-02-10T09:39:37.444Z,991.84
2018-02-10T09:40:42.235Z,991.84
2018-02-10T09:41:37.423Z,991.81
2018-02-10T09:42:37.417Z,991.84
2018-02-10T09:43:37.407Z,991.83
2018-02-10T09:44:37.399Z,991.82
2018-02-10T09:45:37.390Z,991.84
2018-02-10T09:46:37.380Z,991.85
2018-02-10T09:47:37.375Z,991.84
2018-02-10T09:48:37.364Z,991.86
2018-02-10T09:49:37.354Z,991.82
2018-02-10T09:50:37.346Z,991.9
2018-02-10T09:51:37.337Z,991.85
2018-02-10T09:52:37.329Z,991.88
2018-02-10T09:53:37.320Z,991.83
2018-02-10T09:54:37.310Z,991.87
2018-02-10T09:55:37.301Z,991.84
2018-02-10T09:56:37.294Z,991.82
2018-02-10T09:57:37.284Z,991.81
2018-02-10T09:58:37.275Z,991.83
2018-02-10T09:59:37.267Z,991.81
2018-02-10T10:00:37.259Z,991.8
2018-02-10T10:01:37.251Z,991.81
2018-02-10T10:02:37.242Z,991.78
2018-02-10T10:03:37.232Z,991.78
2018-02-10T10:04:37.226Z,991.78
2018-02-10T10:05:37.218Z,991.83
2018-02-10T10:06:37.207Z,991.82
2018-02-10T10:07:37.198Z,991.75
2018-02-10T10:08:37.197Z,991.75
2018-02-10T10:09:37.194Z,991.77
2018-02-10T10:10:37.173Z,991.78
2018-02-10T10:11:37.164Z,991.8
2018-02-10T10:12:37.155Z,991.79
2018-02-10T10:13:37.145Z,991.82
2018-02-10T10:14:37.137Z,991.82
2018-02-10T10:15:37.130Z,991.82
2018-02-10T10:16:37.119Z,991.82
2018-02-10T10:17:37.112Z,991.83
2018-02-10T10:18:37.105Z,991.88
2018-02-10T10:19:37.095Z,991.88
2018-02-10T10:20:37.087Z,991.88
2018-02-10T10:21:37.078Z,991.85
2018-02-10T10:22:37.069Z,991.83
2018-02-10T10:23:37.063Z,991.87
2018-02-10T10:24:37.051Z,991.87
2018-02-10T10:54:14.114Z,991.6
2018-02-10T10:55:14.459Z,991.58
2018-02-10T10:56:14.080Z,991.6
2018-02-10T10:57:14.068Z,991.57
2018-02-10T10:58:14.058Z,991.62
2018-02-10T10:59:14.046Z,991.58
2018-02-10T11:00:14.282Z,991.59
2018-02-10T11:01:14.022Z,991.6
2018-02-10T11:02:14.012Z,991.62
2018-02-10T11:03:14.006Z,991.58
2018-02-10T11:04:13.993Z,991.61
2018-02-10T11:05:14.474Z,991.55
2018-02-10T11:06:13.983Z,991.5
2018-02-10T11:07:13.966Z,991.48
2018-02-10T11:08:13.961Z,991.49
2018-02-10T11:09:13.950Z,991.48
2018-02-10T11:10:14.418Z,991.47
2018-02-10T11:11:13.931Z,991.44
2018-02-10T11:12:13.923Z,991.42
2018-02-10T11:13:13.916Z,991.45
2018-02-10T11:14:13.908Z,991.46
2018-02-10T11:15:14.242Z,991.45
2018-02-10T11:16:13.894Z,991.48
2018-02-10T11:17:13.904Z,991.42
2018-02-10T11:18:13.880Z,991.42
2018-02-10T11:19:13.869Z,991.43
2018-02-10T11:20:14.310Z,991.37
2018-02-10T11:21:13.854Z,991.38
2018-02-10T11:22:13.880Z,991.37
2018-02-10T11:23:13.839Z,991.32
2018-02-10T11:24:18.688Z,991.39
2018-02-10T11:25:14.367Z,991.36
2018-02-10T11:26:13.824Z,991.33
2018-02-10T11:27:13.811Z,991.31
2018-02-10T11:28:13.811Z,991.36
2018-02-10T11:29:13.796Z,991.32
2018-02-10T11:30:14.116Z,991.33
2018-02-10T11:31:13.780Z,991.34
2018-02-10T11:32:13.774Z,991.33
2018-02-10T11:33:13.767Z,991.37
2018-02-10T11:34:13.766Z,991.35
2018-02-10T11:35:14.056Z,991.35
2018-02-10T11:36:13.742Z,991.34
2018-02-10T11:37:13.735Z,991.34
2018-02-10T11:38:13.727Z,991.35
2018-02-10T11:39:13.720Z,991.39
2018-02-10T11:40:14.081Z,991.37
2018-02-10T11:41:13.703Z,991.35
2018-02-10T11:42:13.700Z,991.34
2018-02-10T11:43:13.693Z,991.39
2018-02-10T11:44:13.681Z,991.37
2018-02-10T11:45:14.104Z,991.33
2018-02-10T11:46:13.664Z,991.32
2018-02-10T11:47:13.680Z,991.34
2018-02-10T11:48:13.657Z,991.31
2018-02-10T11:49:13.659Z,991.29
2018-02-10T11:50:14.245Z,991.29
2018-02-10T11:51:13.628Z,991.31
2018-02-10T11:52:13.618Z,991.3
2018-02-10T11:53:13.609Z,991.31
2018-02-10T11:54:13.601Z,991.32
2018-02-10T11:55:14.019Z,991.36
2018-02-10T11:56:13.587Z,991.37
2018-02-10T11:57:13.584Z,991.38
2018-02-10T11:58:13.571Z,991.35
2018-02-10T11:59:13.571Z,991.35
2018-02-10T12:00:13.886Z,991.32
2018-02-10T12:01:13.549Z,991.33
2018-02-10T12:02:13.543Z,991.3
2018-02-10T12:03:13.534Z,991.27
2018-02-10T12:04:13.531Z,991.29
2018-02-10T12:05:14.080Z,991.31
2018-02-10T12:06:13.515Z,991.3
2018-02-10T12:07:13.507Z,991.28
2018-02-10T12:08:13.501Z,991.3
2018-02-10T12:09:13.492Z,991.27
2018-02-10T12:10:13.955Z,991.28
2018-02-10T12:11:13.476Z,991.32
2018-02-10T12:12:13.468Z,991.31
2018-02-10T12:13:13.462Z,991.24
2018-02-10T12:14:13.452Z,991.28
2018-02-10T12:15:14.134Z,991.31
2018-02-10T12:16:13.439Z,991.3
2018-02-10T12:17:13.432Z,991.26
2018-02-10T12:18:13.425Z,991.26
2018-02-10T12:19:13.416Z,991.24
2018-02-10T12:20:13.701Z,991.26
2018-02-10T12:21:13.400Z,991.2
2018-02-10T12:22:13.392Z,991.21
2018-02-10T12:23:13.386Z,991.21
2018-02-10T12:24:13.381Z,991.21
2018-02-10T12:25:14.038Z,991.21
2018-02-10T12:26:13.364Z,991.26
2018-02-10T12:27:13.354Z,991.24
2018-02-10T12:28:13.347Z,991.2
2018-02-10T12:29:13.338Z,991.27
2018-02-10T12:30:13.773Z,991.26
2018-02-10T12:31:13.323Z,991.28
2018-02-10T12:32:13.314Z,991.3
2018-02-10T12:33:13.307Z,991.29
2018-02-10T12:34:13.318Z,991.29
2018-02-10T12:35:13.768Z,991.28
2018-02-10T12:36:13.284Z,991.27
2018-02-10T12:37:13.512Z,991.26
2018-02-10T12:38:13.509Z,991.22
2018-02-10T12:39:13.484Z,991.24
2018-02-10T12:40:13.524Z,991.25
2018-02-10T12:41:13.441Z,991.25
2018-02-10T12:42:13.235Z,991.24
2018-02-10T12:43:13.230Z,991.23
2018-02-10T12:44:13.222Z,991.21
2018-02-10T12:45:13.413Z,991.21
2018-02-10T12:46:13.201Z,991.2
2018-02-10T12:47:13.199Z,991.22
2018-02-10T12:48:13.185Z,991.26
2018-02-10T12:49:13.180Z,991.26
2018-02-10T12:50:13.639Z,991.25
2018-02-10T12:51:13.163Z,991.21
2018-02-10T12:52:13.155Z,991.21
2018-02-10T12:53:13.147Z,991.22
2018-02-10T12:54:13.138Z,991.18
2018-02-10T12:55:13.522Z,991.2
2018-02-10T12:56:13.123Z,991.17
2018-02-10T12:57:13.115Z,991.18
2018-02-10T12:58:13.105Z,991.13
2018-02-10T12:59:13.099Z,991.15